sensor_id;sensor_type;location;lat;lon;timestamp;temperature;humidity
36444;DHT22;24692;45.642;13.806;2023-04-24T00:00:03;16.40;99.90
36444;DHT22;24692;45.642;13.806;2023-04-24T00:02:32;16.40;99.90
36444;DHT22;24692;45.642;13.806;2023-04-24T00:04:59;16.40;99.90
36444;DHT22;24692;45.642;13.806;2023-04-24T00:07:31;16.40;99.90
36444;DHT22;24692;45.642;13.806;2023-04-24T00:09:57;16.40;99.90
36444;DHT22;24692;45.642;13.806;2023-04-24T00:12:23;16.50;99.90
36444;DHT22;24692;45.642;13.806;2023-04-24T00:14:49;16.40;99.90
36444;DHT22;24692;45.642;13.806;2023-04-24T00:17:14;16.40;99.90
36444;DHT22;24692;45.642;13.806;2023-04-24T00:19:40;16.40;99.90
36444;DHT22;24692;45.642;13.806;2023-04-24T00:22:06;16.40;99.90
36444;DHT22;24692;45.642;13.806;2023-04-24T00:24:32;16.40;99.90
36444;DHT22;24692;45.642;13.806;2023-04-24T00:26:58;16.50;99.90
36444;DHT22;24692;45.642;13.806;2023-04-24T00:29:24;16.50;99.90
36444;DHT22;24692;45.642;13.806;2023-04-24T00:31:50;16.40;99.90
36444;DHT22;24692;45.642;13.806;2023-04-24T00:34:16;16.40;99.90
36444;DHT22;24692;45.642;13.806;2023-04-24T00:36:41;16.30;99.90
36444;DHT22;24692;45.642;13.806;2023-04-24T00:39:07;16.20;99.90
36444;DHT22;24692;45.642;13.806;2023-04-24T00:41:36;16.10;99.90
36444;DHT22;24692;45.642;13.806;2023-04-24T00:44:02;16.00;99.90
36444;DHT22;24692;45.642;13.806;2023-04-24T00:46:28;16.00;99.90
36444;DHT22;24692;45.642;13.806;2023-04-24T00:48:54;15.90;99.90
36444;DHT22;24692;45.642;13.806;2023-04-24T00:51:21;15.90;99.90
36444;DHT22;24692;45.642;13.806;2023-04-24T00:53:47;16.00;99.90
36444;DHT22;24692;45.642;13.806;2023-04-24T00:56:12;15.90;99.90
36444;DHT22;24692;45.642;13.806;2023-04-24T00:58:38;15.90;99.90
36444;DHT22;24692;45.642;13.806;2023-04-24T01:01:06;16.00;99.90
36444;DHT22;24692;45.642;13.806;2023-04-24T01:03:33;16.00;99.90
36444;DHT22;24692;45.642;13.806;2023-04-24T01:05:59;16.00;99.90
36444;DHT22;24692;45.642;13.806;2023-04-24T01:08:26;16.00;99.90
36444;DHT22;24692;45.642;13.806;2023-04-24T01:10:53;16.00;99.90
36444;DHT22;24692;45.642;13.806;2023-04-24T01:13:19;16.00;99.90
36444;DHT22;24692;45.642;13.806;2023-04-24T01:15:46;16.00;99.90
36444;DHT22;24692;45.642;13.806;2023-04-24T01:18:13;15.90;99.90
36444;DHT22;24692;45.642;13.806;2023-04-24T01:20:42;15.90;99.90
36444;DHT22;24692;45.642;13.806;2023-04-24T01:23:09;16.00;99.90
36444;DHT22;24692;45.642;13.806;2023-04-24T01:25:36;16.00;99.90
36444;DHT22;24692;45.642;13.806;2023-04-24T01:28:02;16.10;99.90
36444;DHT22;24692;45.642;13.806;2023-04-24T01:30:28;16.10;99.90
36444;DHT22;24692;45.642;13.806;2023-04-24T01:32:53;16.10;99.90
36444;DHT22;24692;45.642;13.806;2023-04-24T01:35:20;16.00;99.90
36444;DHT22;24692;45.642;13.806;2023-04-24T01:37:46;16.10;99.90
36444;DHT22;24692;45.642;13.806;2023-04-24T01:40:12;16.10;99.90
36444;DHT22;24692;45.642;13.806;2023-04-24T01:42:37;16.10;99.90
36444;DHT22;24692;45.642;13.806;2023-04-24T01:45:04;16.10;99.90
36444;DHT22;24692;45.642;13.806;2023-04-24T01:47:33;16.10;99.90
36444;DHT22;24692;45.642;13.806;2023-04-24T01:49:59;16.20;99.90
36444;DHT22;24692;45.642;13.806;2023-04-24T01:52:25;16.20;99.90
36444;DHT22;24692;45.642;13.806;2023-04-24T01:54:52;16.20;99.90
36444;DHT22;24692;45.642;13.806;2023-04-24T01:57:18;16.20;99.90
36444;DHT22;24692;45.642;13.806;2023-04-24T01:59:44;16.10;99.90
36444;DHT22;24692;45.642;13.806;2023-04-24T02:02:09;16.10;99.90
36444;DHT22;24692;45.642;13.806;2023-04-24T02:04:35;16.20;99.90
36444;DHT22;24692;45.642;13.806;2023-04-24T02:07:00;16.20;99.90
36444;DHT22;24692;45.642;13.806;2023-04-24T02:09:26;16.30;99.90
36444;DHT22;24692;45.642;13.806;2023-04-24T02:11:52;16.20;99.90
36444;DHT22;24692;45.642;13.806;2023-04-24T02:14:17;16.20;99.90
36444;DHT22;24692;45.642;13.806;2023-04-24T02:16:43;16.20;99.90
36444;DHT22;24692;45.642;13.806;2023-04-24T02:19:09;16.10;99.90
36444;DHT22;24692;45.642;13.806;2023-04-24T02:21:35;16.00;99.90
36444;DHT22;24692;45.642;13.806;2023-04-24T02:24:01;16.00;99.90
36444;DHT22;24692;45.642;13.806;2023-04-24T02:26:27;16.10;99.90
36444;DHT22;24692;45.642;13.806;2023-04-24T02:28:52;16.10;99.90
36444;DHT22;24692;45.642;13.806;2023-04-24T02:31:18;16.00;99.90
36444;DHT22;24692;45.642;13.806;2023-04-24T02:33:44;16.10;99.90
36444;DHT22;24692;45.642;13.806;2023-04-24T02:36:09;16.00;99.90
36444;DHT22;24692;45.642;13.806;2023-04-24T02:38:35;16.00;99.90
36444;DHT22;24692;45.642;13.806;2023-04-24T02:41:01;16.00;99.90
36444;DHT22;24692;45.642;13.806;2023-04-24T02:43:27;16.00;99.90
36444;DHT22;24692;45.642;13.806;2023-04-24T02:45:53;15.90;99.90
36444;DHT22;24692;45.642;13.806;2023-04-24T02:48:19;15.90;99.90
36444;DHT22;24692;45.642;13.806;2023-04-24T02:50:46;15.80;99.90
36444;DHT22;24692;45.642;13.806;2023-04-24T02:53:11;15.80;99.90
36444;DHT22;24692;45.642;13.806;2023-04-24T02:55:37;15.90;99.90
36444;DHT22;24692;45.642;13.806;2023-04-24T02:58:03;15.80;99.90
36444;DHT22;24692;45.642;13.806;2023-04-24T03:00:28;15.90;99.90
36444;DHT22;24692;45.642;13.806;2023-04-24T03:02:55;15.90;99.90
36444;DHT22;24692;45.642;13.806;2023-04-24T03:05:20;15.90;99.90
36444;DHT22;24692;45.642;13.806;2023-04-24T03:07:46;15.80;99.90
36444;DHT22;24692;45.642;13.806;2023-04-24T03:10:12;15.70;99.90
36444;DHT22;24692;45.642;13.806;2023-04-24T03:12:37;15.70;99.90
36444;DHT22;24692;45.642;13.806;2023-04-24T03:15:03;15.60;99.90
36444;DHT22;24692;45.642;13.806;2023-04-24T03:17:29;15.60;99.90
36444;DHT22;24692;45.642;13.806;2023-04-24T03:19:55;15.60;99.90
36444;DHT22;24692;45.642;13.806;2023-04-24T03:22:20;15.60;99.90
36444;DHT22;24692;45.642;13.806;2023-04-24T03:24:46;15.50;99.90
36444;DHT22;24692;45.642;13.806;2023-04-24T03:27:11;15.40;99.90
36444;DHT22;24692;45.642;13.806;2023-04-24T03:29:37;15.40;99.90
36444;DHT22;24692;45.642;13.806;2023-04-24T03:32:03;15.40;99.90
36444;DHT22;24692;45.642;13.806;2023-04-24T03:34:28;15.40;99.90
36444;DHT22;24692;45.642;13.806;2023-04-24T03:36:54;15.40;99.90
36444;DHT22;24692;45.642;13.806;2023-04-24T03:39:20;15.40;99.90
36444;DHT22;24692;45.642;13.806;2023-04-24T03:41:45;15.30;99.90
36444;DHT22;24692;45.642;13.806;2023-04-24T03:44:11;15.40;99.90
36444;DHT22;24692;45.642;13.806;2023-04-24T03:46:36;15.40;99.90
36444;DHT22;24692;45.642;13.806;2023-04-24T03:49:02;15.50;99.90
36444;DHT22;24692;45.642;13.806;2023-04-24T03:51:28;15.50;99.90
36444;DHT22;24692;45.642;13.806;2023-04-24T03:53:55;15.50;99.90
36444;DHT22;24692;45.642;13.806;2023-04-24T03:56:21;15.50;99.90
36444;DHT22;24692;45.642;13.806;2023-04-24T03:58:46;15.60;99.90
36444;DHT22;24692;45.642;13.806;2023-04-24T04:01:12;15.60;99.90
36444;DHT22;24692;45.642;13.806;2023-04-24T04:03:38;15.50;99.90
36444;DHT22;24692;45.642;13.806;2023-04-24T04:06:04;15.50;99.90
36444;DHT22;24692;45.642;13.806;2023-04-24T04:08:30;15.50;99.90
36444;DHT22;24692;45.642;13.806;2023-04-24T04:10:56;15.50;99.90
36444;DHT22;24692;45.642;13.806;2023-04-24T04:13:22;15.50;99.90
36444;DHT22;24692;45.642;13.806;2023-04-24T04:15:47;15.50;99.90
36444;DHT22;24692;45.642;13.806;2023-04-24T04:18:13;15.50;99.90
36444;DHT22;24692;45.642;13.806;2023-04-24T04:20:39;15.50;99.90
36444;DHT22;24692;45.642;13.806;2023-04-24T04:23:04;15.50;99.90
36444;DHT22;24692;45.642;13.806;2023-04-24T04:25:30;15.50;99.90
36444;DHT22;24692;45.642;13.806;2023-04-24T04:27:55;15.60;99.90
36444;DHT22;24692;45.642;13.806;2023-04-24T04:30:23;15.50;99.90
36444;DHT22;24692;45.642;13.806;2023-04-24T04:32:49;15.60;99.90
36444;DHT22;24692;45.642;13.806;2023-04-24T04:35:14;15.60;99.90
36444;DHT22;24692;45.642;13.806;2023-04-24T04:37:40;15.50;99.90
36444;DHT22;24692;45.642;13.806;2023-04-24T04:40:06;15.60;99.90
36444;DHT22;24692;45.642;13.806;2023-04-24T04:42:33;15.50;99.90
36444;DHT22;24692;45.642;13.806;2023-04-24T04:45:01;15.50;99.90
36444;DHT22;24692;45.642;13.806;2023-04-24T04:47:27;15.50;99.90
36444;DHT22;24692;45.642;13.806;2023-04-24T04:49:54;15.50;99.90
36444;DHT22;24692;45.642;13.806;2023-04-24T04:52:20;15.50;99.90
36444;DHT22;24692;45.642;13.806;2023-04-24T04:54:50;15.50;99.90
36444;DHT22;24692;45.642;13.806;2023-04-24T04:57:15;15.40;99.90
36444;DHT22;24692;45.642;13.806;2023-04-24T04:59:41;15.50;99.90
36444;DHT22;24692;45.642;13.806;2023-04-24T05:02:07;15.50;99.90
36444;DHT22;24692;45.642;13.806;2023-04-24T05:04:32;15.50;99.90
36444;DHT22;24692;45.642;13.806;2023-04-24T05:06:58;15.60;99.90
36444;DHT22;24692;45.642;13.806;2023-04-24T05:09:24;15.60;99.90
36444;DHT22;24692;45.642;13.806;2023-04-24T05:11:52;15.50;99.90
36444;DHT22;24692;45.642;13.806;2023-04-24T05:14:18;15.50;99.90
36444;DHT22;24692;45.642;13.806;2023-04-24T05:16:44;15.50;99.90
36444;DHT22;24692;45.642;13.806;2023-04-24T05:19:10;15.50;99.90
36444;DHT22;24692;45.642;13.806;2023-04-24T05:21:37;15.60;99.90
36444;DHT22;24692;45.642;13.806;2023-04-24T05:24:02;15.50;99.90
36444;DHT22;24692;45.642;13.806;2023-04-24T05:26:28;15.50;99.90
36444;DHT22;24692;45.642;13.806;2023-04-24T05:28:54;15.50;99.90
36444;DHT22;24692;45.642;13.806;2023-04-24T05:31:19;15.50;99.90
36444;DHT22;24692;45.642;13.806;2023-04-24T05:33:45;15.50;99.90
36444;DHT22;24692;45.642;13.806;2023-04-24T05:36:11;15.50;99.90
36444;DHT22;24692;45.642;13.806;2023-04-24T05:38:36;15.30;99.90
36444;DHT22;24692;45.642;13.806;2023-04-24T05:41:02;15.40;99.90
36444;DHT22;24692;45.642;13.806;2023-04-24T05:43:28;15.40;99.90
36444;DHT22;24692;45.642;13.806;2023-04-24T05:45:53;15.40;99.90
36444;DHT22;24692;45.642;13.806;2023-04-24T05:48:19;15.30;99.90
36444;DHT22;24692;45.642;13.806;2023-04-24T05:50:45;15.40;99.90
36444;DHT22;24692;45.642;13.806;2023-04-24T05:53:12;15.40;99.90
36444;DHT22;24692;45.642;13.806;2023-04-24T05:55:38;15.40;99.90
36444;DHT22;24692;45.642;13.806;2023-04-24T05:58:03;15.40;99.90
36444;DHT22;24692;45.642;13.806;2023-04-24T06:00:30;15.40;99.90
36444;DHT22;24692;45.642;13.806;2023-04-24T06:02:56;15.50;99.90
36444;DHT22;24692;45.642;13.806;2023-04-24T06:05:21;15.40;99.90
36444;DHT22;24692;45.642;13.806;2023-04-24T06:07:48;15.40;99.90
36444;DHT22;24692;45.642;13.806;2023-04-24T06:10:13;15.30;99.90
36444;DHT22;24692;45.642;13.806;2023-04-24T06:12:39;15.30;99.90
36444;DHT22;24692;45.642;13.806;2023-04-24T06:15:05;15.30;99.90
36444;DHT22;24692;45.642;13.806;2023-04-24T06:17:31;15.30;99.90
36444;DHT22;24692;45.642;13.806;2023-04-24T06:19:57;15.20;99.90
36444;DHT22;24692;45.642;13.806;2023-04-24T06:22:23;15.20;99.90
36444;DHT22;24692;45.642;13.806;2023-04-24T06:24:48;15.20;99.90
36444;DHT22;24692;45.642;13.806;2023-04-24T06:27:14;15.20;99.90
36444;DHT22;24692;45.642;13.806;2023-04-24T06:29:40;15.20;99.90
36444;DHT22;24692;45.642;13.806;2023-04-24T06:32:05;15.20;99.90
36444;DHT22;24692;45.642;13.806;2023-04-24T06:34:31;15.20;99.90
36444;DHT22;24692;45.642;13.806;2023-04-24T06:36:59;15.10;99.90
36444;DHT22;24692;45.642;13.806;2023-04-24T06:39:25;14.90;99.90
36444;DHT22;24692;45.642;13.806;2023-04-24T06:41:50;14.80;99.90
36444;DHT22;24692;45.642;13.806;2023-04-24T06:44:16;14.70;99.90
36444;DHT22;24692;45.642;13.806;2023-04-24T06:46:42;14.70;99.90
36444;DHT22;24692;45.642;13.806;2023-04-24T06:49:07;14.60;99.90
36444;DHT22;24692;45.642;13.806;2023-04-24T06:51:33;14.70;99.90
36444;DHT22;24692;45.642;13.806;2023-04-24T06:53:59;14.60;99.90
36444;DHT22;24692;45.642;13.806;2023-04-24T06:56:25;14.70;99.90
36444;DHT22;24692;45.642;13.806;2023-04-24T06:58:51;14.70;99.90
36444;DHT22;24692;45.642;13.806;2023-04-24T07:01:17;14.70;99.90
36444;DHT22;24692;45.642;13.806;2023-04-24T07:03:43;14.70;99.90
36444;DHT22;24692;45.642;13.806;2023-04-24T07:06:09;14.60;99.90
36444;DHT22;24692;45.642;13.806;2023-04-24T07:08:36;14.60;99.90
36444;DHT22;24692;45.642;13.806;2023-04-24T07:11:02;14.70;99.90
36444;DHT22;24692;45.642;13.806;2023-04-24T07:13:28;14.80;99.90
36444;DHT22;24692;45.642;13.806;2023-04-24T07:15:54;15.00;99.90
36444;DHT22;24692;45.642;13.806;2023-04-24T07:18:21;15.00;99.90
36444;DHT22;24692;45.642;13.806;2023-04-24T07:20:47;15.10;99.90
36444;DHT22;24692;45.642;13.806;2023-04-24T07:23:13;15.20;99.90
36444;DHT22;24692;45.642;13.806;2023-04-24T07:25:38;15.20;99.90
36444;DHT22;24692;45.642;13.806;2023-04-24T07:28:04;15.10;99.90
36444;DHT22;24692;45.642;13.806;2023-04-24T07:30:31;15.10;99.90
36444;DHT22;24692;45.642;13.806;2023-04-24T07:32:58;15.20;99.90
36444;DHT22;24692;45.642;13.806;2023-04-24T07:35:25;15.00;99.90
36444;DHT22;24692;45.642;13.806;2023-04-24T07:37:54;15.00;99.90
36444;DHT22;24692;45.642;13.806;2023-04-24T07:40:21;14.90;99.90
36444;DHT22;24692;45.642;13.806;2023-04-24T07:42:47;14.80;99.90
36444;DHT22;24692;45.642;13.806;2023-04-24T07:45:14;14.80;99.90
36444;DHT22;24692;45.642;13.806;2023-04-24T07:47:41;14.90;99.90
36444;DHT22;24692;45.642;13.806;2023-04-24T07:50:09;14.90;99.90
36444;DHT22;24692;45.642;13.806;2023-04-24T07:52:35;14.80;99.90
36444;DHT22;24692;45.642;13.806;2023-04-24T07:55:01;14.80;99.90
36444;DHT22;24692;45.642;13.806;2023-04-24T07:57:27;14.80;99.90
36444;DHT22;24692;45.642;13.806;2023-04-24T07:59:53;14.90;99.90
36444;DHT22;24692;45.642;13.806;2023-04-24T08:02:19;14.90;99.90
36444;DHT22;24692;45.642;13.806;2023-04-24T08:04:47;14.80;99.90
36444;DHT22;24692;45.642;13.806;2023-04-24T08:07:12;14.90;99.90
36444;DHT22;24692;45.642;13.806;2023-04-24T08:09:38;14.90;99.90
36444;DHT22;24692;45.642;13.806;2023-04-24T08:12:04;14.90;99.90
36444;DHT22;24692;45.642;13.806;2023-04-24T08:14:29;15.00;99.90
36444;DHT22;24692;45.642;13.806;2023-04-24T08:16:55;15.00;99.90
36444;DHT22;24692;45.642;13.806;2023-04-24T08:19:25;14.90;99.90
36444;DHT22;24692;45.642;13.806;2023-04-24T08:21:51;14.80;99.90
36444;DHT22;24692;45.642;13.806;2023-04-24T08:24:17;14.80;99.90
36444;DHT22;24692;45.642;13.806;2023-04-24T08:26:42;14.70;99.90
36444;DHT22;24692;45.642;13.806;2023-04-24T08:29:08;14.80;99.90
36444;DHT22;24692;45.642;13.806;2023-04-24T08:31:34;14.90;99.90
36444;DHT22;24692;45.642;13.806;2023-04-24T08:34:00;15.00;99.90
36444;DHT22;24692;45.642;13.806;2023-04-24T08:36:26;15.00;99.90
36444;DHT22;24692;45.642;13.806;2023-04-24T08:38:52;15.00;99.90
36444;DHT22;24692;45.642;13.806;2023-04-24T08:41:19;14.90;99.90
36444;DHT22;24692;45.642;13.806;2023-04-24T08:43:47;15.00;99.90
36444;DHT22;24692;45.642;13.806;2023-04-24T08:46:15;15.00;99.90
36444;DHT22;24692;45.642;13.806;2023-04-24T08:48:42;15.00;99.90
36444;DHT22;24692;45.642;13.806;2023-04-24T08:51:08;15.00;99.90
36444;DHT22;24692;45.642;13.806;2023-04-24T08:53:35;14.80;99.90
36444;DHT22;24692;45.642;13.806;2023-04-24T08:56:02;14.80;99.90
36444;DHT22;24692;45.642;13.806;2023-04-24T08:58:28;14.60;99.90
36444;DHT22;24692;45.642;13.806;2023-04-24T09:00:55;14.60;99.90
36444;DHT22;24692;45.642;13.806;2023-04-24T09:03:21;14.60;99.90
36444;DHT22;24692;45.642;13.806;2023-04-24T09:05:48;14.60;99.90
36444;DHT22;24692;45.642;13.806;2023-04-24T09:08:17;14.50;99.90
36444;DHT22;24692;45.642;13.806;2023-04-24T09:10:44;14.50;99.90
36444;DHT22;24692;45.642;13.806;2023-04-24T09:13:10;14.40;99.90
36444;DHT22;24692;45.642;13.806;2023-04-24T09:15:40;14.40;99.90
36444;DHT22;24692;45.642;13.806;2023-04-24T09:18:06;14.30;99.90
36444;DHT22;24692;45.642;13.806;2023-04-24T09:20:32;14.20;99.90
36444;DHT22;24692;45.642;13.806;2023-04-24T09:22:58;14.20;99.90
36444;DHT22;24692;45.642;13.806;2023-04-24T09:25:34;14.10;99.90
36444;DHT22;24692;45.642;13.806;2023-04-24T09:28:05;14.10;99.90
36444;DHT22;24692;45.642;13.806;2023-04-24T09:30:32;14.10;99.90
36444;DHT22;24692;45.642;13.806;2023-04-24T09:33:13;14.10;99.90
36444;DHT22;24692;45.642;13.806;2023-04-24T09:35:41;14.10;99.90
36444;DHT22;24692;45.642;13.806;2023-04-24T09:38:08;14.00;99.90
36444;DHT22;24692;45.642;13.806;2023-04-24T09:40:34;14.00;99.90
36444;DHT22;24692;45.642;13.806;2023-04-24T09:43:00;14.10;99.90
36444;DHT22;24692;45.642;13.806;2023-04-24T09:45:35;14.20;99.90
36444;DHT22;24692;45.642;13.806;2023-04-24T09:48:01;14.30;99.90
36444;DHT22;24692;45.642;13.806;2023-04-24T09:50:29;14.40;99.90
36444;DHT22;24692;45.642;13.806;2023-04-24T09:52:59;14.50;99.90
36444;DHT22;24692;45.642;13.806;2023-04-24T09:55:25;14.70;99.90
36444;DHT22;24692;45.642;13.806;2023-04-24T09:58:00;14.80;99.90
36444;DHT22;24692;45.642;13.806;2023-04-24T10:00:30;14.90;99.90
36444;DHT22;24692;45.642;13.806;2023-04-24T10:02:58;15.00;99.90
36444;DHT22;24692;45.642;13.806;2023-04-24T10:05:27;15.00;99.90
36444;DHT22;24692;45.642;13.806;2023-04-24T10:07:56;14.80;99.90
36444;DHT22;24692;45.642;13.806;2023-04-24T10:10:22;14.70;99.90
36444;DHT22;24692;45.642;13.806;2023-04-24T10:12:49;14.70;99.90
36444;DHT22;24692;45.642;13.806;2023-04-24T10:15:16;14.70;99.90
36444;DHT22;24692;45.642;13.806;2023-04-24T10:17:50;14.90;99.90
36444;DHT22;24692;45.642;13.806;2023-04-24T10:20:23;14.90;99.90
36444;DHT22;24692;45.642;13.806;2023-04-24T10:22:51;15.00;99.90
36444;DHT22;24692;45.642;13.806;2023-04-24T10:25:23;15.10;99.90
36444;DHT22;24692;45.642;13.806;2023-04-24T10:27:51;15.30;99.90
36444;DHT22;24692;45.642;13.806;2023-04-24T10:30:18;15.40;99.90
36444;DHT22;24692;45.642;13.806;2023-04-24T10:32:44;15.60;99.90
36444;DHT22;24692;45.642;13.806;2023-04-24T10:35:12;15.80;99.90
36444;DHT22;24692;45.642;13.806;2023-04-24T10:37:44;15.90;99.90
36444;DHT22;24692;45.642;13.806;2023-04-24T10:40:11;15.90;99.90
36444;DHT22;24692;45.642;13.806;2023-04-24T10:42:40;15.90;99.90
36444;DHT22;24692;45.642;13.806;2023-04-24T10:45:22;16.00;99.90
36444;DHT22;24692;45.642;13.806;2023-04-24T10:48:12;16.00;99.90
36444;DHT22;24692;45.642;13.806;2023-04-24T10:50:47;15.90;99.90
36444;DHT22;24692;45.642;13.806;2023-04-24T10:53:23;15.70;99.90
36444;DHT22;24692;45.642;13.806;2023-04-24T10:56:12;15.50;99.90
36444;DHT22;24692;45.642;13.806;2023-04-24T10:58:59;15.30;99.90
36444;DHT22;24692;45.642;13.806;2023-04-24T11:01:32;15.20;99.90
36444;DHT22;24692;45.642;13.806;2023-04-24T11:04:00;15.10;99.90
36444;DHT22;24692;45.642;13.806;2023-04-24T11:06:33;15.10;99.90
36444;DHT22;24692;45.642;13.806;2023-04-24T11:09:07;15.10;99.90
36444;DHT22;24692;45.642;13.806;2023-04-24T11:11:34;15.10;99.90
36444;DHT22;24692;45.642;13.806;2023-04-24T11:14:00;15.00;99.90
36444;DHT22;24692;45.642;13.806;2023-04-24T11:19:05;14.90;99.90
36444;DHT22;24692;45.642;13.806;2023-04-24T11:21:39;14.90;99.90
36444;DHT22;24692;45.642;13.806;2023-04-24T11:29:59;15.30;99.90
36444;DHT22;24692;45.642;13.806;2023-04-24T11:32:40;15.40;99.90
36444;DHT22;24692;45.642;13.806;2023-04-24T11:35:14;15.50;99.90
36444;DHT22;24692;45.642;13.806;2023-04-24T11:37:45;15.50;99.90
36444;DHT22;24692;45.642;13.806;2023-04-24T11:40:18;15.40;99.90
36444;DHT22;24692;45.642;13.806;2023-04-24T11:42:49;15.30;99.90
36444;DHT22;24692;45.642;13.806;2023-04-24T11:45:27;15.20;99.90
36444;DHT22;24692;45.642;13.806;2023-04-24T11:47:53;15.20;99.90
36444;DHT22;24692;45.642;13.806;2023-04-24T11:50:21;15.00;99.90
36444;DHT22;24692;45.642;13.806;2023-04-24T11:52:48;15.10;99.90
36444;DHT22;24692;45.642;13.806;2023-04-24T11:57:44;15.00;99.90
36444;DHT22;24692;45.642;13.806;2023-04-24T12:00:36;15.00;99.90
36444;DHT22;24692;45.642;13.806;2023-04-24T12:05:31;15.10;99.90
36444;DHT22;24692;45.642;13.806;2023-04-24T12:07:57;14.90;99.90
36444;DHT22;24692;45.642;13.806;2023-04-24T12:10:24;14.90;99.90
36444;DHT22;24692;45.642;13.806;2023-04-24T12:12:51;15.00;99.90
36444;DHT22;24692;45.642;13.806;2023-04-24T12:15:19;14.90;99.90
36444;DHT22;24692;45.642;13.806;2023-04-24T12:17:45;15.00;99.90
36444;DHT22;24692;45.642;13.806;2023-04-24T12:20:11;15.00;99.90
36444;DHT22;24692;45.642;13.806;2023-04-24T12:22:52;15.00;99.90
36444;DHT22;24692;45.642;13.806;2023-04-24T12:25:21;15.10;99.90
36444;DHT22;24692;45.642;13.806;2023-04-24T12:30:35;15.00;99.90
36444;DHT22;24692;45.642;13.806;2023-04-24T12:33:02;15.00;99.90
36444;DHT22;24692;45.642;13.806;2023-04-24T12:35:29;15.00;99.90
36444;DHT22;24692;45.642;13.806;2023-04-24T12:38:08;15.00;99.90
36444;DHT22;24692;45.642;13.806;2023-04-24T12:40:34;15.00;99.90
36444;DHT22;24692;45.642;13.806;2023-04-24T12:42:59;15.00;99.90
36444;DHT22;24692;45.642;13.806;2023-04-24T12:45:25;14.90;99.90
36444;DHT22;24692;45.642;13.806;2023-04-24T12:47:53;14.80;99.90
36444;DHT22;24692;45.642;13.806;2023-04-24T12:50:18;14.70;99.90
36444;DHT22;24692;45.642;13.806;2023-04-24T12:52:44;14.70;99.90
36444;DHT22;24692;45.642;13.806;2023-04-24T12:55:10;14.70;99.90
36444;DHT22;24692;45.642;13.806;2023-04-24T12:57:38;14.80;99.90
36444;DHT22;24692;45.642;13.806;2023-04-24T13:00:06;14.80;99.90
36444;DHT22;24692;45.642;13.806;2023-04-24T13:02:33;14.80;99.90
36444;DHT22;24692;45.642;13.806;2023-04-24T13:04:59;14.60;99.90
36444;DHT22;24692;45.642;13.806;2023-04-24T13:07:25;14.50;99.90
36444;DHT22;24692;45.642;13.806;2023-04-24T13:09:52;14.30;99.90
36444;DHT22;24692;45.642;13.806;2023-04-24T13:12:18;14.20;99.90
36444;DHT22;24692;45.642;13.806;2023-04-24T13:14:43;13.90;99.90
36444;DHT22;24692;45.642;13.806;2023-04-24T13:17:09;13.80;99.90
36444;DHT22;24692;45.642;13.806;2023-04-24T13:19:40;13.80;99.90
36444;DHT22;24692;45.642;13.806;2023-04-24T13:22:08;13.80;99.90
36444;DHT22;24692;45.642;13.806;2023-04-24T13:24:34;13.80;99.90
36444;DHT22;24692;45.642;13.806;2023-04-24T13:27:00;13.80;99.90
36444;DHT22;24692;45.642;13.806;2023-04-24T13:29:26;13.80;99.90
36444;DHT22;24692;45.642;13.806;2023-04-24T13:31:53;13.90;99.90
36444;DHT22;24692;45.642;13.806;2023-04-24T13:34:20;13.90;99.90
36444;DHT22;24692;45.642;13.806;2023-04-24T13:36:46;14.00;99.90
36444;DHT22;24692;45.642;13.806;2023-04-24T13:39:12;14.10;99.90
36444;DHT22;24692;45.642;13.806;2023-04-24T13:41:38;14.20;99.90
36444;DHT22;24692;45.642;13.806;2023-04-24T13:44:05;14.30;99.90
36444;DHT22;24692;45.642;13.806;2023-04-24T13:46:31;14.60;99.90
36444;DHT22;24692;45.642;13.806;2023-04-24T13:48:57;14.90;99.90
36444;DHT22;24692;45.642;13.806;2023-04-24T13:51:25;15.10;99.90
36444;DHT22;24692;45.642;13.806;2023-04-24T13:53:52;15.20;99.90
36444;DHT22;24692;45.642;13.806;2023-04-24T13:56:18;15.50;99.90
36444;DHT22;24692;45.642;13.806;2023-04-24T13:58:44;15.90;99.90
36444;DHT22;24692;45.642;13.806;2023-04-24T14:01:09;15.80;99.90
36444;DHT22;24692;45.642;13.806;2023-04-24T14:03:37;15.90;99.90
36444;DHT22;24692;45.642;13.806;2023-04-24T14:06:03;15.90;99.90
36444;DHT22;24692;45.642;13.806;2023-04-24T14:08:28;16.00;99.90
36444;DHT22;24692;45.642;13.806;2023-04-24T14:10:54;15.60;99.90
36444;DHT22;24692;45.642;13.806;2023-04-24T14:13:20;15.10;99.90
36444;DHT22;24692;45.642;13.806;2023-04-24T14:15:46;14.90;99.90
36444;DHT22;24692;45.642;13.806;2023-04-24T14:18:12;14.90;99.90
36444;DHT22;24692;45.642;13.806;2023-04-24T14:20:37;14.90;99.90
36444;DHT22;24692;45.642;13.806;2023-04-24T14:23:03;14.90;99.90
36444;DHT22;24692;45.642;13.806;2023-04-24T14:25:30;14.70;99.90
36444;DHT22;24692;45.642;13.806;2023-04-24T14:27:55;14.70;99.90
36444;DHT22;24692;45.642;13.806;2023-04-24T14:30:21;14.70;99.90
36444;DHT22;24692;45.642;13.806;2023-04-24T14:32:47;14.60;99.90
36444;DHT22;24692;45.642;13.806;2023-04-24T14:35:13;14.50;99.90
36444;DHT22;24692;45.642;13.806;2023-04-24T14:37:39;14.40;99.90
36444;DHT22;24692;45.642;13.806;2023-04-24T14:40:07;14.50;99.90
36444;DHT22;24692;45.642;13.806;2023-04-24T14:42:34;14.40;99.90
36444;DHT22;24692;45.642;13.806;2023-04-24T14:45:00;14.20;99.90
36444;DHT22;24692;45.642;13.806;2023-04-24T14:47:26;14.00;99.90
36444;DHT22;24692;45.642;13.806;2023-04-24T14:49:52;13.90;99.90
36444;DHT22;24692;45.642;13.806;2023-04-24T14:52:18;13.90;99.90
36444;DHT22;24692;45.642;13.806;2023-04-24T14:54:43;13.80;99.90
36444;DHT22;24692;45.642;13.806;2023-04-24T14:57:09;13.80;99.90
36444;DHT22;24692;45.642;13.806;2023-04-24T14:59:35;13.70;99.90
36444;DHT22;24692;45.642;13.806;2023-04-24T15:02:01;13.80;99.90
36444;DHT22;24692;45.642;13.806;2023-04-24T15:04:28;13.80;99.90
36444;DHT22;24692;45.642;13.806;2023-04-24T15:06:55;13.90;99.90
36444;DHT22;24692;45.642;13.806;2023-04-24T15:09:22;13.80;99.90
36444;DHT22;24692;45.642;13.806;2023-04-24T15:11:51;13.80;99.90
36444;DHT22;24692;45.642;13.806;2023-04-24T15:14:19;13.80;99.90
36444;DHT22;24692;45.642;13.806;2023-04-24T15:16:46;13.90;99.90
36444;DHT22;24692;45.642;13.806;2023-04-24T15:19:13;14.00;99.90
36444;DHT22;24692;45.642;13.806;2023-04-24T15:21:39;14.00;99.90
36444;DHT22;24692;45.642;13.806;2023-04-24T15:24:07;13.90;99.90
36444;DHT22;24692;45.642;13.806;2023-04-24T15:26:36;14.00;99.90
36444;DHT22;24692;45.642;13.806;2023-04-24T15:29:02;14.00;99.90